createdAt,value
2018-11-26T00:00:27.835Z,94.54
2018-11-26T00:02:56.375Z,94.47
2018-11-26T00:05:24.945Z,94.69
2018-11-26T00:07:54.401Z,94.75
2018-11-26T00:10:34.231Z,94.11
2018-11-26T00:13:03.830Z,93.81
2018-11-26T00:15:33.237Z,94.22
2018-11-26T00:18:02.686Z,94.11
2018-11-26T00:20:32.151Z,94.35
2018-11-26T00:23:00.788Z,94.12
2018-11-26T00:25:29.322Z,94.21
2018-11-26T00:27:57.903Z,94.17
2018-11-26T00:30:26.507Z,94.01
2018-11-26T00:32:55.054Z,94.07
2018-11-26T00:35:23.615Z,93.84
2018-11-26T00:37:52.166Z,93.61
2018-11-26T00:40:20.701Z,93.88
2018-11-26T00:42:49.626Z,93.44
2018-11-26T00:45:19.052Z,93.07
2018-11-26T00:47:48.530Z,93.20
2018-11-26T00:50:19.019Z,93.41
2018-11-26T00:52:48.824Z,93.30
2018-11-26T00:55:18.283Z,93.56
2018-11-26T00:57:47.554Z,93.51
2018-11-26T01:00:17.809Z,93.24
2018-11-26T01:02:46.723Z,93.15
2018-11-26T01:05:38.425Z,93.73
2018-11-26T01:08:07.154Z,94.30
2018-11-26T01:10:35.732Z,94.32
2018-11-26T01:13:04.333Z,94.40
2018-11-26T01:15:32.866Z,94.33
2018-11-26T01:18:01.410Z,94.71
2018-11-26T01:20:30.023Z,95.18
2018-11-26T01:22:58.593Z,95.07
2018-11-26T01:25:27.193Z,95.05
2018-11-26T01:27:55.723Z,95.17
2018-11-26T01:30:24.520Z,95.44
2018-11-26T01:32:53.103Z,95.21
2018-11-26T01:35:21.722Z,95.34
2018-11-26T01:37:50.268Z,95.41
2018-11-26T01:40:22.493Z,95.35
2018-11-26T01:42:51.026Z,94.79
2018-11-26T01:45:19.620Z,95.22
2018-11-26T01:47:48.568Z,94.77
2018-11-26T01:50:17.938Z,94.58
2018-11-26T01:52:47.198Z,94.61
2018-11-26T01:55:16.461Z,94.29
2018-11-26T01:57:45.208Z,94.61
2018-11-26T02:00:15.795Z,94.46
2018-11-26T02:02:44.361Z,94.26
2018-11-26T02:05:12.976Z,94.49
2018-11-26T02:07:41.529Z,95.10
2018-11-26T02:10:13.302Z,94.09
2018-11-26T02:12:42.863Z,94.08
2018-11-26T02:15:13.661Z,94.25
2018-11-26T02:17:42.283Z,94.13
2018-11-26T02:20:11.887Z,93.80
2018-11-26T02:22:41.380Z,94.24
2018-11-26T02:25:10.077Z,93.97
2018-11-26T02:27:38.609Z,94.23
2018-11-26T02:30:08.840Z,93.71
2018-11-26T02:32:39.110Z,93.40
2018-11-26T02:35:08.569Z,93.22
2018-11-26T02:37:37.998Z,93.31
2018-11-26T02:40:08.371Z,92.79
2018-11-26T02:42:37.930Z,92.75
2018-11-26T02:45:06.981Z,92.85
2018-11-26T02:47:36.419Z,92.37
2018-11-26T02:50:06.340Z,92.68
2018-11-26T02:52:34.862Z,92.99
2018-11-26T02:55:03.449Z,92.87
2018-11-26T02:57:32.012Z,93.77
2018-11-26T03:00:01.429Z,93.90
2018-11-26T03:02:30.276Z,93.79
2018-11-26T03:04:58.799Z,93.79
2018-11-26T03:07:27.370Z,94.22
2018-11-26T03:09:55.886Z,94.07
2018-11-26T03:12:24.428Z,94.01
2018-11-26T03:14:52.957Z,93.80
2018-11-26T03:17:22.659Z,93.62
2018-11-26T03:19:52.000Z,93.56
2018-11-26T03:22:20.525Z,93.77
2018-11-26T03:24:49.327Z,93.74
2018-11-26T03:27:18.814Z,94.47
2018-11-26T03:29:47.752Z,93.80
2018-11-26T03:32:17.073Z,93.40
2018-11-26T03:34:46.700Z,93.72
2018-11-26T03:37:16.330Z,93.64
2018-11-26T03:39:45.243Z,92.95
2018-11-26T03:42:15.327Z,93.41
2018-11-26T03:44:43.867Z,93.41
2018-11-26T03:47:12.448Z,93.11
2018-11-26T03:49:40.992Z,93.30
2018-11-26T03:52:09.539Z,93.34
2018-11-26T03:54:38.420Z,93.55
2018-11-26T03:57:07.008Z,93.88
2018-11-26T03:59:36.460Z,94.23
2018-11-26T04:02:05.136Z,94.26
2018-11-26T04:04:34.560Z,93.56
2018-11-26T04:07:03.457Z,93.43
2018-11-26T04:09:32.040Z,93.99
2018-11-26T04:12:01.450Z,93.93
2018-11-26T04:14:31.021Z,94.25
2018-11-26T04:17:02.826Z,93.49
2018-11-26T04:19:32.510Z,93.49
2018-11-26T04:22:02.149Z,93.57
2018-11-26T04:24:31.635Z,93.63
2018-11-26T04:27:00.207Z,93.56
2018-11-26T04:29:30.104Z,93.01
2018-11-26T04:31:58.623Z,92.85
2018-11-26T04:34:27.168Z,93.36
2018-11-26T04:36:55.724Z,93.74
2018-11-26T04:39:25.269Z,93.89
2018-11-26T04:41:54.670Z,93.78
2018-11-26T04:44:23.248Z,93.75
2018-11-26T04:46:54.140Z,93.40
2018-11-26T04:49:23.364Z,93.82
2018-11-26T04:51:51.912Z,93.86
2018-11-26T04:54:21.442Z,93.98
2018-11-26T04:56:50.819Z,92.88
2018-11-26T04:59:20.200Z,93.23
2018-11-26T05:01:48.758Z,92.59
2018-11-26T05:04:18.044Z,92.35
2018-11-26T05:06:46.745Z,92.01
2018-11-26T05:09:16.210Z,92.54
2018-11-26T05:11:46.070Z,92.57
2018-11-26T05:14:15.997Z,92.46
2018-11-26T05:16:46.045Z,92.89
2018-11-26T05:19:16.422Z,93.39
2018-11-26T05:21:45.343Z,93.43
2018-11-26T05:24:14.131Z,92.64
2018-11-26T05:26:42.770Z,92.69
2018-11-26T05:29:11.467Z,92.76
2018-11-26T05:31:40.745Z,92.38
2018-11-26T05:34:09.332Z,92.05
2018-11-26T05:36:38.857Z,92.46
2018-11-26T05:39:09.333Z,91.91
2018-11-26T05:41:38.772Z,92.09
2018-11-26T05:44:07.498Z,91.70
2018-11-26T05:46:37.094Z,91.30
2018-11-26T05:49:05.961Z,91.25
2018-11-26T05:51:34.552Z,91.36
2018-11-26T05:54:03.139Z,91.40
2018-11-26T05:56:31.734Z,92.39
2018-11-26T05:59:00.296Z,92.56
2018-11-26T06:01:29.174Z,92.56
2018-11-26T06:03:57.795Z,92.20
2018-11-26T06:06:27.302Z,91.93
2018-11-26T06:08:55.858Z,92.24
2018-11-26T06:11:24.444Z,92.08
2018-11-26T06:13:53.977Z,92.05
2018-11-26T06:16:23.288Z,92.11
2018-11-26T06:18:51.834Z,92.49
2018-11-26T06:21:21.158Z,92.29
2018-11-26T06:23:51.700Z,92.46
2018-11-26T06:26:21.122Z,92.31
2018-11-26T06:28:49.696Z,92.55
2018-11-26T06:31:19.294Z,93.19
2018-11-26T06:33:51.716Z,92.79
2018-11-26T06:36:20.387Z,92.53
2018-11-26T06:38:48.929Z,92.53
2018-11-26T06:41:18.226Z,92.49
2018-11-26T06:43:49.323Z,92.20
2018-11-26T06:46:18.979Z,92.60
2018-11-26T06:48:48.474Z,92.43
2018-11-26T06:51:19.106Z,92.23
2018-11-26T06:53:49.965Z,92.05
2018-11-26T06:56:19.509Z,92.33
2018-11-26T06:58:49.279Z,92.30
2018-11-26T07:01:18.720Z,91.96
2018-11-26T07:03:49.082Z,92.00
2018-11-26T07:06:18.565Z,92.05
2018-11-26T07:08:49.142Z,92.09
2018-11-26T07:11:18.678Z,92.34
2018-11-26T07:13:50.006Z,93.01
2018-11-26T07:16:19.480Z,92.58
2018-11-26T07:18:49.760Z,92.37
2018-11-26T07:21:19.215Z,92.30
2018-11-26T07:23:50.198Z,91.99
2018-11-26T07:26:18.768Z,92.09
2018-11-26T07:28:48.230Z,91.89
2018-11-26T07:31:17.312Z,91.55
2018-11-26T07:33:47.090Z,92.18
2018-11-26T07:36:16.522Z,91.98
2018-11-26T07:38:45.072Z,91.62
2018-11-26T07:41:13.624Z,91.37
2018-11-26T07:43:42.159Z,91.41
2018-11-26T07:46:10.705Z,91.83
2018-11-26T07:48:39.248Z,91.67
2018-11-26T07:51:08.146Z,91.82
2018-11-26T07:53:36.693Z,91.41
2018-11-26T07:56:05.376Z,91.64
2018-11-26T07:58:33.980Z,91.33
2018-11-26T08:01:02.578Z,91.09
2018-11-26T08:03:31.148Z,91.07
2018-11-26T08:05:59.671Z,91.32
2018-11-26T08:08:28.220Z,91.44
2018-11-26T08:10:56.780Z,91.12
2018-11-26T08:13:25.321Z,91.05
2018-11-26T08:15:53.852Z,91.11
2018-11-26T08:18:22.422Z,91.03
2018-11-26T08:20:50.965Z,90.73
2018-11-26T08:23:19.498Z,90.50
2018-11-26T08:25:48.752Z,89.88
2018-11-26T08:28:17.542Z,90.55
2018-11-26T08:30:46.298Z,90.71
2018-11-26T08:33:16.484Z,91.23
2018-11-26T08:35:45.121Z,90.93
2018-11-26T08:38:18.937Z,91.10
2018-11-26T08:40:49.523Z,90.60
2018-11-26T08:43:20.037Z,89.79
2018-11-26T08:45:54.640Z,89.88
2018-11-26T08:48:30.121Z,90.49
2018-11-26T08:50:59.827Z,89.93
2018-11-26T08:53:29.449Z,89.19
2018-11-26T08:55:58.050Z,90.25
2018-11-26T08:58:26.636Z,89.08
2018-11-26T09:01:01.374Z,89.21
2018-11-26T09:03:35.084Z,89.23
2018-11-26T09:06:04.487Z,89.14
2018-11-26T09:08:34.138Z,89.59
2018-11-26T09:11:03.690Z,89.28
2018-11-26T09:13:32.229Z,89.07
2018-11-26T09:16:00.799Z,89.33
2018-11-26T09:18:29.407Z,88.99
2018-11-26T09:20:58.009Z,88.91
2018-11-26T09:23:26.554Z,87.67
2018-11-26T09:25:55.221Z,87.94
2018-11-26T09:28:23.755Z,88.21
2018-11-26T09:30:52.338Z,87.88
2018-11-26T09:33:20.960Z,88.14
2018-11-26T09:35:49.517Z,87.69
2018-11-26T09:38:19.169Z,87.28
2018-11-26T09:40:49.378Z,87.88
2018-11-26T09:43:18.773Z,87.77
2018-11-26T09:45:47.534Z,87.24
2018-11-26T09:48:16.452Z,86.92
2018-11-26T09:50:45.319Z,86.86
2018-11-26T09:53:13.835Z,86.52
2018-11-26T09:55:42.482Z,87.98
2018-11-26T09:58:11.003Z,87.35
2018-11-26T10:00:39.553Z,87.88
2018-11-26T10:03:08.099Z,87.54
2018-11-26T10:05:36.715Z,87.34
2018-11-26T10:08:05.312Z,86.62
2018-11-26T10:10:34.140Z,85.67
2018-11-26T10:13:02.674Z,86.45
2018-11-26T10:15:32.605Z,85.65
2018-11-26T10:18:02.110Z,85.73
2018-11-26T10:20:30.679Z,85.29
2018-11-26T10:22:59.217Z,86.17
2018-11-26T10:25:27.842Z,86.54
2018-11-26T10:27:56.391Z,85.79
2018-11-26T10:30:25.368Z,85.92
2018-11-26T10:32:54.340Z,85.33
2018-11-26T10:35:23.198Z,85.53
2018-11-26T10:37:51.776Z,84.79
2018-11-26T10:40:21.933Z,85.15
2018-11-26T10:42:50.547Z,85.71
2018-11-26T10:45:19.961Z,85.41
2018-11-26T10:47:48.551Z,85.33
2018-11-26T10:50:21.284Z,84.39
2018-11-26T10:52:53.135Z,84.36
2018-11-26T10:55:25.091Z,84.22
2018-11-26T10:57:53.676Z,83.87
2018-11-26T11:00:27.448Z,83.97
2018-11-26T11:02:55.993Z,83.80
2018-11-26T11:05:25.605Z,83.86
2018-11-26T11:07:54.155Z,83.20
2018-11-26T11:10:24.753Z,83.68
2018-11-26T11:12:53.363Z,84.07
2018-11-26T11:15:22.036Z,84.47
2018-11-26T11:17:50.625Z,84.63
2018-11-26T11:20:21.332Z,84.26
2018-11-26T11:22:49.875Z,84.59
2018-11-26T11:25:19.295Z,85.27
2018-11-26T11:27:49.261Z,85.63
2018-11-26T11:30:20.705Z,86.46
2018-11-26T11:32:50.187Z,85.76
2018-11-26T11:35:19.078Z,85.80
2018-11-26T11:37:49.178Z,85.42
2018-11-26T11:40:23.787Z,85.56
2018-11-26T11:42:53.442Z,84.94
2018-11-26T11:45:22.931Z,85.18
2018-11-26T11:47:52.385Z,85.86
2018-11-26T11:50:21.518Z,85.92
2018-11-26T11:52:50.611Z,86.04
2018-11-26T11:55:21.122Z,86.47
2018-11-26T11:57:49.795Z,86.57
2018-11-26T12:00:33.088Z,86.81
2018-11-26T12:03:03.018Z,86.39
2018-11-26T12:05:32.596Z,87.98
2018-11-26T12:08:01.951Z,87.20
2018-11-26T12:10:31.403Z,87.24
2018-11-26T12:13:00.921Z,87.94
2018-11-26T12:15:30.426Z,88.08
2018-11-26T12:17:59.956Z,87.87
2018-11-26T12:20:29.496Z,87.47
2018-11-26T12:22:59.045Z,87.42
2018-11-26T12:25:28.469Z,87.11
2018-11-26T12:27:57.936Z,86.82
2018-11-26T12:30:29.810Z,87.37
2018-11-26T12:32:58.682Z,87.42
2018-11-26T12:35:27.239Z,87.40
2018-11-26T12:37:55.825Z,87.88
2018-11-26T12:40:25.348Z,87.65
2018-11-26T12:42:56.224Z,87.59
2018-11-26T12:45:30.039Z,87.11
2018-11-26T12:47:58.808Z,87.26
2018-11-26T12:50:27.432Z,86.67
2018-11-26T12:52:55.987Z,85.72
2018-11-26T12:55:25.072Z,85.92
2018-11-26T12:57:54.364Z,85.84
2018-11-26T13:00:25.353Z,86.03
2018-11-26T13:02:55.073Z,86.29
2018-11-26T13:05:23.661Z,86.09
2018-11-26T13:07:52.210Z,85.98
2018-11-26T13:10:21.899Z,86.92
2018-11-26T13:12:51.234Z,86.21
2018-11-26T13:15:22.964Z,85.90
2018-11-26T13:17:51.509Z,86.59
2018-11-26T13:20:22.615Z,87.17
2018-11-26T13:22:52.642Z,86.89
2018-11-26T13:25:32.243Z,86.14
2018-11-26T13:28:01.933Z,86.64
2018-11-26T13:30:38.921Z,86.47
2018-11-26T13:33:09.346Z,87.07
2018-11-26T13:35:38.160Z,86.59
2018-11-26T13:38:07.699Z,86.08
2018-11-26T13:40:37.312Z,85.46
2018-11-26T13:43:08.678Z,85.80
2018-11-26T13:52:40.520Z,86.87
2018-11-26T13:55:12.451Z,86.46
2018-11-26T13:57:41.990Z,86.96
2018-11-26T14:00:12.107Z,86.34
2018-11-26T14:02:40.697Z,85.65
2018-11-26T14:05:11.386Z,85.88
2018-11-26T14:07:39.938Z,86.10
2018-11-26T14:10:15.213Z,86.01
2018-11-26T14:12:45.333Z,85.94
2018-11-26T14:15:16.266Z,86.26
2018-11-26T14:17:46.587Z,86.33
2018-11-26T14:20:17.880Z,86.37
2018-11-26T14:22:48.022Z,86.13
2018-11-26T14:25:18.739Z,85.82
2018-11-26T14:27:48.571Z,86.41
2018-11-26T14:30:24.769Z,86.66
2018-11-26T14:32:53.653Z,85.88
2018-11-26T14:35:23.334Z,86.33
2018-11-26T14:37:55.191Z,86.09
2018-11-26T14:40:35.063Z,85.98
2018-11-26T14:43:03.693Z,85.78
2018-11-26T14:45:32.243Z,85.86
2018-11-26T14:48:00.862Z,86.29
2018-11-26T14:50:29.408Z,85.07
2018-11-26T14:52:59.063Z,85.74
2018-11-26T14:55:28.836Z,84.78
2018-11-26T14:57:57.410Z,85.16
2018-11-26T15:00:26.040Z,84.40
2018-11-26T15:02:54.594Z,85.20
2018-11-26T15:05:23.142Z,85.63
2018-11-26T15:07:51.749Z,85.33
2018-11-26T15:10:21.383Z,85.49
2018-11-26T15:12:51.132Z,85.63
2018-11-26T15:15:24.590Z,84.95
2018-11-26T15:17:54.087Z,84.82
2018-11-26T15:20:24.888Z,85.18
2018-11-26T15:22:54.575Z,85.55
2018-11-26T15:25:25.006Z,85.17
2018-11-26T15:27:54.649Z,84.88
2018-11-26T15:30:23.595Z,84.86
2018-11-26T15:32:53.144Z,85.37
2018-11-26T15:35:22.814Z,85.08
2018-11-26T15:37:51.403Z,84.99
2018-11-26T15:40:21.141Z,84.73
2018-11-26T15:42:49.812Z,85.09
2018-11-26T15:45:19.603Z,85.64
2018-11-26T15:47:50.322Z,85.12
2018-11-26T15:50:18.922Z,84.87
2018-11-26T15:52:48.150Z,85.52
2018-11-26T15:55:18.058Z,85.80
2018-11-26T15:57:47.458Z,85.73
2018-11-26T16:00:23.200Z,85.91
2018-11-26T16:02:53.160Z,85.84
2018-11-26T16:05:25.985Z,84.94
2018-11-26T16:07:55.767Z,85.00
2018-11-26T16:10:24.316Z,85.15
2018-11-26T16:12:54.617Z,84.59
2018-11-26T16:15:26.395Z,85.28
2018-11-26T16:17:56.521Z,85.27
2018-11-26T16:20:26.247Z,85.08
2018-11-26T16:22:55.232Z,85.17
2018-11-26T16:25:24.681Z,85.14
2018-11-26T16:27:54.493Z,84.80
2018-11-26T16:30:23.050Z,85.56
2018-11-26T16:32:54.943Z,85.34
2018-11-26T16:35:28.807Z,85.47
2018-11-26T16:37:57.574Z,85.38
2018-11-26T16:40:26.104Z,85.09
2018-11-26T16:42:55.688Z,85.26
2018-11-26T16:45:25.583Z,85.79
2018-11-26T16:47:55.806Z,84.97
2018-11-26T16:50:26.540Z,85.56
2018-11-26T16:52:55.089Z,85.80
2018-11-26T16:55:23.710Z,85.57
2018-11-26T16:57:53.367Z,84.86
2018-11-26T17:00:23.250Z,85.35
2018-11-26T17:02:54.862Z,85.79
2018-11-26T17:05:26.816Z,84.26
2018-11-26T17:07:55.439Z,84.61
2018-11-26T17:10:24.028Z,84.88
2018-11-26T17:12:53.562Z,84.59
2018-11-26T17:15:22.118Z,84.58
2018-11-26T17:17:51.592Z,83.33
2018-11-26T17:20:20.293Z,84.41
2018-11-26T17:22:48.891Z,84.46
2018-11-26T17:25:19.064Z,84.47
2018-11-26T17:27:48.452Z,84.83
2018-11-26T17:30:26.885Z,84.23
2018-11-26T17:32:59.606Z,84.94
2018-11-26T17:35:29.828Z,84.09
2018-11-26T17:37:59.769Z,84.46
2018-11-26T17:40:28.709Z,84.39
2018-11-26T17:42:57.297Z,84.32
2018-11-26T17:45:27.188Z,84.63
2018-11-26T17:48:00.038Z,84.32
2018-11-26T17:50:37.785Z,83.70
2018-11-26T17:53:09.908Z,84.11
2018-11-26T17:55:45.201Z,84.39
2018-11-26T17:58:14.028Z,84.32
2018-11-26T18:00:48.238Z,82.81
2018-11-26T18:03:17.426Z,84.07
2018-11-26T18:05:47.500Z,84.11
2018-11-26T18:08:17.993Z,84.60
2018-11-26T18:10:47.359Z,83.00
2018-11-26T18:13:16.274Z,83.91
2018-11-26T18:15:46.484Z,84.62
2018-11-26T18:18:18.664Z,83.59
2018-11-26T18:20:48.381Z,83.94
2018-11-26T18:23:17.580Z,83.67
2018-11-26T18:25:46.280Z,83.13
2018-11-26T18:28:16.254Z,83.42
2018-11-26T18:30:47.746Z,84.87
2018-11-26T18:33:16.965Z,84.92
2018-11-26T18:35:47.575Z,84.43
2018-11-26T18:38:17.266Z,84.47
2018-11-26T18:40:49.622Z,84.37
2018-11-26T18:43:18.378Z,84.11
2018-11-26T18:45:47.608Z,84.82
2018-11-26T18:48:17.236Z,84.89
2018-11-26T18:50:47.299Z,84.84
2018-11-26T18:53:17.730Z,84.29
2018-11-26T18:55:46.852Z,84.78
2018-11-26T18:58:16.057Z,84.26
2018-11-26T19:00:49.926Z,85.34
2018-11-26T19:03:21.889Z,85.98
2018-11-26T19:05:51.836Z,84.67
2018-11-26T19:08:20.555Z,84.60
2018-11-26T19:10:57.763Z,83.82
2018-11-26T19:13:28.624Z,83.71
2018-11-26T19:16:03.302Z,83.71
2018-11-26T19:18:31.903Z,84.27
2018-11-26T19:21:00.518Z,84.07
2018-11-26T19:23:29.238Z,83.80
2018-11-26T19:25:57.783Z,84.48
2018-11-26T19:28:28.068Z,84.42
2018-11-26T19:30:57.691Z,84.01
2018-11-26T19:33:26.352Z,83.31
2018-11-26T19:35:54.971Z,83.68
2018-11-26T19:41:32.130Z,83.10
2018-11-26T19:44:01.683Z,83.02
2018-11-26T19:46:31.203Z,82.55
2018-11-26T19:48:59.812Z,82.56
2018-11-26T19:51:28.448Z,83.51
2018-11-26T19:53:57.368Z,83.03
2018-11-26T19:56:25.932Z,83.01
2018-11-26T19:58:54.520Z,83.10
2018-11-26T20:01:23.089Z,83.00
2018-11-26T20:03:57.697Z,83.15
2018-11-26T20:06:26.714Z,83.72
2018-11-26T20:08:57.940Z,82.86
2018-11-26T20:11:32.959Z,81.80
2018-11-26T20:13:55.249Z,81.59
2018-11-26T20:16:28.302Z,80.95
2018-11-26T20:18:56.872Z,81.78
2018-11-26T20:21:25.433Z,80.55
2018-11-26T20:23:54.846Z,81.22
2018-11-26T20:26:23.397Z,81.37
2018-11-26T20:28:56.790Z,81.67
2018-11-26T20:31:20.733Z,82.38
2018-11-26T20:33:51.083Z,81.80
2018-11-26T20:36:19.941Z,81.89
2018-11-26T20:38:48.550Z,80.16
2018-11-26T20:41:17.943Z,79.96
2018-11-26T20:43:48.767Z,81.12
2018-11-26T20:46:18.295Z,80.96
2018-11-26T20:48:47.520Z,80.52
2018-11-26T20:51:16.208Z,80.07
2018-11-26T20:53:45.365Z,80.94
2018-11-26T20:56:17.104Z,80.62
2018-11-26T20:58:47.040Z,80.03
2018-11-26T21:01:16.342Z,81.07
2018-11-26T21:03:45.394Z,81.05
2018-11-26T21:06:13.975Z,81.44
2018-11-26T21:08:43.457Z,82.24
2018-11-26T21:11:12.003Z,82.13
2018-11-26T21:13:40.947Z,82.05
2018-11-26T21:16:09.811Z,83.14
2018-11-26T21:18:38.493Z,84.15
2018-11-26T21:21:08.063Z,84.00
2018-11-26T21:23:37.506Z,83.45
2018-11-26T21:26:08.499Z,84.31
2018-11-26T21:28:37.942Z,83.44
2018-11-26T21:31:06.725Z,84.46
2018-11-26T21:33:36.215Z,84.42
2018-11-26T21:36:04.845Z,83.33
2018-11-26T21:38:36.271Z,83.33
2018-11-26T21:41:04.960Z,82.80
2018-11-26T21:43:33.553Z,83.39
2018-11-26T21:46:03.273Z,83.80
2018-11-26T21:48:31.851Z,84.69
2018-11-26T21:51:00.450Z,84.49
2018-11-26T21:53:29.042Z,83.92
2018-11-26T21:55:58.240Z,84.25
2018-11-26T21:58:26.798Z,85.26
2018-11-26T22:00:56.837Z,85.75
2018-11-26T22:03:30.508Z,85.53
2018-11-26T22:05:56.298Z,85.33
2018-11-26T22:08:24.987Z,86.25
2018-11-26T22:10:54.394Z,85.89
2018-11-26T22:13:23.060Z,85.86
2018-11-26T22:15:52.614Z,86.57
2018-11-26T22:18:21.167Z,86.51
2018-11-26T22:20:50.792Z,87.05
2018-11-26T22:23:19.994Z,87.05
2018-11-26T22:25:48.600Z,87.27
2018-11-26T22:28:17.960Z,87.37
2018-11-26T22:30:48.411Z,87.71
2018-11-26T22:33:18.090Z,88.44
2018-11-26T22:35:48.270Z,89.30
2018-11-26T22:38:18.428Z,88.96
2018-11-26T22:40:48.797Z,88.87
2018-11-26T22:43:18.773Z,89.15
2018-11-26T22:45:48.395Z,88.92
2018-11-26T22:48:17.508Z,88.61
2018-11-26T22:50:47.232Z,88.59
2018-11-26T22:53:16.516Z,88.46
2018-11-26T22:55:45.106Z,88.61
2018-11-26T22:58:15.953Z,88.84
2018-11-26T23:00:51.486Z,89.24
2018-11-26T23:03:21.184Z,89.34
2018-11-26T23:05:49.713Z,89.41
2018-11-26T23:08:18.408Z,89.79
2018-11-26T23:10:47.587Z,90.05
2018-11-26T23:13:16.129Z,90.13
2018-11-26T23:15:45.364Z,89.75
2018-11-26T23:18:13.945Z,89.66
2018-11-26T23:20:42.622Z,89.14
2018-11-26T23:23:11.200Z,88.54
2018-11-26T23:25:39.757Z,89.13
2018-11-26T23:28:08.337Z,89.33
2018-11-26T23:30:37.034Z,90.13
2018-11-26T23:33:06.694Z,89.81
2018-11-26T23:35:36.228Z,90.79
2018-11-26T23:38:04.877Z,90.93
2018-11-26T23:40:34.178Z,91.67
2018-11-26T23:43:02.228Z,91.77
2018-11-26T23:45:31.437Z,91.56
2018-11-26T23:47:59.971Z,91.92
2018-11-26T23:50:28.488Z,91.76
2018-11-26T23:52:57.048Z,92.26
2018-11-26T23:55:25.722Z,92.98
2018-11-26T23:57:54.369Z,92.61
